Time;durP1;ratioP1;P1;durP2;ratioP2;P2;SDS_P1;SDS_P2;PMS_P1;PMS_P2;Temp;Humidity;BMP_temperature;BMP_pressure;BME280_temperature;BME280_humidity;BME280_pressure;Samples;Min_cycle;Max_cycle;Signal;HPM_P1;HPM_P2
2021/04/02 04:54:45;;;;;;;;;;;;;;;11.26;81.83;96985.76;1731405;79;20933;-68
2021/04/02 04:57:15;;;;;;;;;;;;;;;11.23;83.32;96989.73;1757681;80;20705;-69
2021/04/02 04:59:43;;;;;;;;;;;;;;;11.20;84.46;96994.72;1760751;79;20509;-69
2021/04/02 05:02:11;;;;;;;;;;;;;;;11.12;86.84;96990.79;1743548;80;20397;-68
2021/04/02 05:04:38;;;;;;;;;;;;;;;11.04;91.06;96994.48;1762009;79;20332;-67
2021/04/02 05:07:09;;;;;;;;;;;;;;;10.93;93.95;96996.35;1740167;80;20606;-67
2021/04/02 05:09:37;;;;;;;;;;;;;;;10.84;97.54;97008.44;1738896;79;21810;-70
2021/04/02 05:12:07;;;;;;;;;;;;;;;10.75;99.32;97002.13;1710843;81;20329;-63
2021/04/02 05:14:35;;;;;;;;;;;;;;;10.69;100.00;97000.56;1749524;80;20476;-70
2021/04/02 05:17:03;;;;;;;;;;;;;;;10.63;100.00;97001.62;1769068;80;20775;-69
2021/04/02 05:19:31;;;;;;;;;;;;;;;10.58;100.00;97000.31;1739210;80;20597;-70
2021/04/02 05:21:59;;;;;;;;;;;;;;;10.56;100.00;97006.61;1705295;80;22065;-70
2021/04/02 05:24:27;;;;;;;;;;;;;;;10.52;100.00;97007.38;1740072;80;20532;-68
2021/04/02 05:26:55;;;;;;;;;;;;;;;10.49;100.00;97005.30;1743136;80;20549;-69
2021/04/02 05:29:22;;;;;;;;;;;;;;;10.50;100.00;97004.25;1712853;81;20952;-71
2021/04/02 05:31:52;;;;;;;;;;;;;;;10.50;100.00;97006.35;1723348;80;20568;-70
2021/04/02 05:34:19;;;;;;;;;;;;;;;10.51;100.00;97009.77;1763656;80;21200;-68
2021/04/02 05:36:48;;;;;;;;;;;;;;;10.53;100.00;97007.64;1752927;79;20591;-69
2021/04/02 05:39:15;;;;;;;;;;;;;;;10.53;100.00;97016.32;1752459;80;20588;-69
2021/04/02 05:42:04;;;;;;;;;;;;;;;10.55;100.00;97020.00;1767740;79;20221;-70
2021/04/02 05:44:34;;;;;;;;;;;;;;;10.55;100.00;97022.63;1766081;78;20606;-75
2021/04/02 05:47:04;;;;;;;;;;;;;;;10.52;100.00;97029.71;1759521;79;21867;-70
2021/04/02 05:49:32;;;;;;;;;;;;;;;10.47;100.00;97024.46;1755500;79;20809;-71
2021/04/02 05:52:02;;;;;;;;;;;;;;;10.42;100.00;97022.63;1760460;80;20506;-69
2021/04/02 05:54:37;;;;;;;;;;;;;;;10.37;100.00;97029.72;1758585;79;20511;-71
2021/04/02 05:57:06;;;;;;;;;;;;;;;10.35;100.00;97023.93;1741739;80;20563;-69
2021/04/02 05:59:35;;;;;;;;;;;;;;;10.29;100.00;97027.59;1755081;80;22094;-68
2021/04/02 06:02:03;;;;;;;;;;;;;;;10.26;100.00;97028.11;1757045;80;20559;-67
2021/04/02 06:04:32;;;;;;;;;;;;;;;10.23;100.00;97026.02;1745463;80;20590;-69
2021/04/02 06:07:00;;;;;;;;;;;;;;;10.22;100.00;97032.31;1738013;79;20470;-69
2021/04/02 06:09:28;;;;;;;;;;;;;;;10.21;100.00;97024.16;1751723;81;20862;-71
2021/04/02 06:11:57;;;;;;;;;;;;;;;10.22;100.00;97033.63;1741293;80;22178;-66
2021/04/02 06:14:25;;;;;;;;;;;;;;;10.22;100.00;97033.11;1738411;79;20694;-67
2021/04/02 06:16:53;;;;;;;;;;;;;;;10.23;100.00;97031.27;1756103;79;20397;-68
2021/04/02 06:19:21;;;;;;;;;;;;;;;10.23;100.00;97028.09;1777068;78;20480;-68
2021/04/02 06:21:54;;;;;;;;;;;;;;;10.26;100.00;97031.52;1756601;79;20712;-69
2021/04/02 06:24:37;;;;;;;;;;;;;;;10.27;100.00;97037.05;1727599;81;21190;-72
2021/04/02 06:27:07;;;;;;;;;;;;;;;10.28;100.00;97042.56;1759149;79;20255;-70
2021/04/02 06:29:43;;;;;;;;;;;;;;;10.29;100.00;97038.10;1757755;79;20492;-72
2021/04/02 06:32:14;;;;;;;;;;;;;;;10.30;100.00;97041.00;1752029;79;20463;-70
2021/04/02 06:34:49;;;;;;;;;;;;;;;10.30;100.00;97035.75;1769260;79;20603;-72
2021/04/02 06:37:17;;;;;;;;;;;;;;;10.33;100.00;97039.15;1724157;81;21927;-74
2021/04/02 06:39:52;;;;;;;;;;;;;;;10.34;100.00;97045.46;1748909;79;20479;-71
2021/04/02 06:42:38;;;;;;;;;;;;;;;10.36;100.00;97043.89;1754890;80;20510;-73
2021/04/02 06:45:14;;;;;;;;;;;;;;;10.36;100.00;97046.52;1765673;78;20591;-69
2021/04/02 06:47:49;;;;;;;;;;;;;;;10.34;100.00;97048.09;1761912;79;20545;-67
2021/04/02 06:50:23;;;;;;;;;;;;;;;10.33;100.00;97046.50;1751860;79;21962;-68
2021/04/02 06:52:55;;;;;;;;;;;;;;;10.33;100.00;97052.28;1759754;78;20536;-67
2021/04/02 06:55:24;;;;;;;;;;;;;;;10.29;100.00;97051.23;1742451;79;20483;-68
2021/04/02 06:57:54;;;;;;;;;;;;;;;10.28;100.00;97053.07;1749818;79;20490;-65
2021/04/02 07:00:24;;;;;;;;;;;;;;;10.26;100.00;97050.43;1748390;80;20614;-70
2021/04/02 07:02:52;;;;;;;;;;;;;;;10.25;100.00;97050.16;1757898;79;22027;-65
2021/04/02 07:05:24;;;;;;;;;;;;;;;10.24;100.00;97053.31;1761031;78;20403;-73
2021/04/02 07:07:54;;;;;;;;;;;;;;;10.21;100.00;97058.30;1755920;80;20483;-69
2021/04/02 07:10:22;;;;;;;;;;;;;;;10.16;100.00;97062.45;1763219;79;20514;-68
2021/04/02 07:12:52;;;;;;;;;;;;;;;10.10;100.00;97067.94;1754170;80;20610;-66
2021/04/02 07:15:20;;;;;;;;;;;;;;;10.03;100.00;97068.70;1763436;79;21861;-70
2021/04/02 07:17:47;;;;;;;;;;;;;;;10.00;100.00;97079.22;1756145;80;20219;-66
2021/04/02 07:20:16;;;;;;;;;;;;;;;9.93;100.00;97087.85;1761877;80;20140;-61
2021/04/02 07:22:43;;;;;;;;;;;;;;;9.84;100.00;97080.19;1762528;79;20489;-70
2021/04/02 07:25:12;;;;;;;;;;;;;;;9.81;100.00;97089.87;1732170;80;20467;-69
2021/04/02 07:27:40;;;;;;;;;;;;;;;9.79;100.00;97086.73;1752655;79;22134;-68
2021/04/02 07:30:10;;;;;;;;;;;;;;;9.77;100.00;97093.55;1761080;80;20328;-68
2021/04/02 07:32:50;;;;;;;;;;;;;;;9.75;100.00;97100.88;1747263;80;20172;-69
2021/04/02 07:35:25;;;;;;;;;;;;;;;9.74;100.00;97097.98;1719147;80;20616;-68
2021/04/02 07:37:55;;;;;;;;;;;;;;;9.75;100.00;97098.77;1749450;79;20629;-69
2021/04/02 07:40:29;;;;;;;;;;;;;;;9.72;100.00;97094.84;1749915;79;21704;-66
2021/04/02 07:42:59;;;;;;;;;;;;;;;9.70;100.00;97102.17;1746288;78;20646;-72
2021/04/02 07:45:34;;;;;;;;;;;;;;;9.65;100.00;97099.50;1732127;80;20493;-70
2021/04/02 07:48:24;;;;;;;;;;;;;;;9.64;100.00;97108.96;1758801;79;20471;-69
2021/04/02 07:50:58;;;;;;;;;;;;;;;9.62;100.00;97105.27;1758245;80;20667;-69
2021/04/02 07:53:36;;;;;;;;;;;;;;;9.62;100.00;97114.45;1752284;79;20798;-71
2021/04/02 07:56:12;;;;;;;;;;;;;;;9.62;100.00;97114.97;1754811;80;20528;-66
2021/04/02 07:58:50;;;;;;;;;;;;;;;9.62;100.00;97114.97;1753969;79;20574;-67
2021/04/02 08:01:19;;;;;;;;;;;;;;;9.61;100.00;97116.02;1746906;78;20590;-68
2021/04/02 08:03:47;;;;;;;;;;;;;;;9.64;100.00;97118.14;1760453;78;20578;-68
2021/04/02 08:06:33;;;;;;;;;;;;;;;9.66;100.00;97112.89;1762710;78;21344;-70
2021/04/02 08:09:08;;;;;;;;;;;;;;;9.65;100.00;97130.98;1740059;79;21097;-69
2021/04/02 08:11:44;;;;;;;;;;;;;;;9.60;100.00;97130.17;1728431;80;20557;-68
2021/04/02 08:14:13;;;;;;;;;;;;;;;9.54;100.00;97128.56;1739770;79;20510;-66
2021/04/02 08:16:46;;;;;;;;;;;;;;;9.49;100.00;97133.78;1752811;79;20804;-63
2021/04/02 08:19:31;;;;;;;;;;;;;;;9.45;100.00;97138.73;1742253;79;21831;-63
2021/04/02 08:22:11;;;;;;;;;;;;;;;9.39;100.00;97135.80;1748208;80;20551;-67
2021/04/02 08:24:46;;;;;;;;;;;;;;;9.35;100.00;97136.05;1738486;80;20188;-66
2021/04/02 08:27:15;;;;;;;;;;;;;;;9.31;100.00;97137.58;1734871;80;20214;-68
2021/04/02 08:29:45;;;;;;;;;;;;;;;9.30;100.00;97141.23;1743540;78;20775;-66
2021/04/02 08:32:14;;;;;;;;;;;;;;;9.30;100.00;97141.23;1741590;78;21895;-73
2021/04/02 08:34:43;;;;;;;;;;;;;;;9.30;100.00;97139.41;1738822;79;20218;-70
2021/04/02 08:37:12;;;;;;;;;;;;;;;9.31;100.00;97145.44;1734656;80;20405;-68
2021/04/02 08:39:40;;;;;;;;;;;;;;;9.32;100.00;97141.27;1739835;78;20420;-66
2021/04/02 08:42:11;;;;;;;;;;;;;;;9.32;100.00;97145.20;1741566;79;20450;-64
2021/04/02 08:44:41;;;;;;;;;;;;;;;9.32;100.00;97146.52;1767514;78;21709;-66
2021/04/02 08:47:11;;;;;;;;;;;;;;;9.28;100.00;97146.76;1761649;78;20395;-69
2021/04/02 08:49:41;;;;;;;;;;;;;;;9.26;100.00;97146.72;1745211;79;20136;-67
2021/04/02 08:52:16;;;;;;;;;;;;;;;9.24;100.00;97148.80;1723271;80;20572;-67
2021/04/02 08:54:46;;;;;;;;;;;;;;;9.21;100.00;97148.80;1725778;80;20616;-69
2021/04/02 08:57:14;;;;;;;;;;;;;;;9.19;100.00;97148.25;1762800;79;21770;-68
2021/04/02 08:59:43;;;;;;;;;;;;;;;9.13;100.00;97151.08;1768992;78;20439;-66
2021/04/02 09:02:13;;;;;;;;;;;;;;;9.04;100.00;97152.05;1734605;79;20605;-66
2021/04/02 09:04:42;;;;;;;;;;;;;;;8.98;100.00;97156.98;1760761;78;20649;-64
2021/04/02 09:07:10;;;;;;;;;;;;;;;8.94;100.00;97156.67;1730773;80;20651;-66
2021/04/02 09:09:43;;;;;;;;;;;;;;;8.90;100.00;97154.29;1727427;79;21327;-65
2021/04/02 09:12:13;;;;;;;;;;;;;;;8.93;100.00;97154.33;1714755;81;20323;-69
2021/04/02 09:14:42;;;;;;;;;;;;;;;8.99;100.00;97158.05;1734208;79;20329;-63
2021/04/02 09:17:23;;;;;;;;;;;;;;;9.04;100.00;97156.50;1726095;80;20483;-66
2021/04/02 09:19:53;;;;;;;;;;;;;;;9.09;100.00;97160.47;1732807;80;20624;-64
2021/04/02 09:22:21;;;;;;;;;;;;;;;9.14;100.00;97157.39;1745113;79;21838;-63
2021/04/02 09:24:49;;;;;;;;;;;;;;;9.17;100.00;97150.32;1744530;79;20648;-63
2021/04/02 09:27:20;;;;;;;;;;;;;;;9.22;100.00;97152.21;1725202;81;20576;-71
2021/04/02 09:29:55;;;;;;;;;;;;;;;9.28;100.00;97163.80;1737983;79;20559;-65
2021/04/02 09:32:20;;;;;;;;;;;;;;;9.33;100.00;97164.34;1741656;79;20766;-69
2021/04/02 09:34:48;;;;;;;;;;;;;;;9.32;100.00;97162.25;1735854;79;21917;-65
2021/04/02 09:37:17;;;;;;;;;;;;;;;9.33;100.00;97164.34;1749946;79;20390;-63
2021/04/02 09:39:45;;;;;;;;;;;;;;;9.30;100.00;97168.25;1755565;79;20533;-65
2021/04/02 09:42:15;;;;;;;;;;;;;;;9.30;100.00;97167.45;1749078;79;20483;-64
2021/04/02 09:44:47;;;;;;;;;;;;;;;9.23;100.00;97178.67;1741061;79;20664;-66
2021/04/02 09:47:15;;;;;;;;;;;;;;;9.11;100.00;97174.92;1734008;79;21846;-67
2021/04/02 09:49:43;;;;;;;;;;;;;;;8.93;100.00;97192.32;1755963;78;20497;-66
2021/04/02 09:52:11;;;;;;;;;;;;;;;8.77;100.00;97176.17;1778009;79;20611;-65
2021/04/02 09:54:39;;;;;;;;;;;;;;;8.63;100.00;97190.69;1740714;79;20580;-70
2021/04/02 09:57:08;;;;;;;;;;;;;;;8.53;100.00;97190.84;1744617;79;20555;-66
2021/04/02 09:59:36;;;;;;;;;;;;;;;8.43;100.00;97188.09;1743200;79;22127;-66
2021/04/02 10:02:04;;;;;;;;;;;;;;;8.38;100.00;97190.66;1735076;79;20560;-65
2021/04/02 10:04:32;;;;;;;;;;;;;;;8.38;100.00;97193.80;1733872;80;20503;-69
2021/04/02 10:07:01;;;;;;;;;;;;;;;8.34;100.00;97196.64;1763574;79;20602;-69
2021/04/02 10:09:29;;;;;;;;;;;;;;;8.32;100.00;97192.95;1725279;79;20743;-69
2021/04/02 10:11:58;;;;;;;;;;;;;;;8.28;100.00;97200.20;1731860;79;22022;-68
2021/04/02 10:14:28;;;;;;;;;;;;;;;8.23;100.00;97206.15;1740511;79;20322;-67
2021/04/02 10:16:56;;;;;;;;;;;;;;;8.21;100.00;97197.22;1746850;79;20544;-68
2021/04/02 10:19:26;;;;;;;;;;;;;;;8.22;100.00;97206.66;1724070;80;20342;-68
2021/04/02 10:21:55;;;;;;;;;;;;;;;8.19;100.00;97215.02;1734306;79;38605;-68
2021/04/02 10:24:23;;;;;;;;;;;;;;;8.14;100.00;97205.77;1758280;79;22077;-67
2021/04/02 10:26:51;;;;;;;;;;;;;;;8.17;100.00;97207.12;1736446;79;20521;-67
2021/04/02 10:29:19;;;;;;;;;;;;;;;8.17;100.00;97211.84;1748830;78;20585;-72
2021/04/02 10:31:48;;;;;;;;;;;;;;;8.15;100.00;97209.98;1736207;80;20449;-70
2021/04/02 10:34:15;;;;;;;;;;;;;;;8.13;100.00;97224.36;1749312;78;20511;-64
2021/04/02 10:36:44;;;;;;;;;;;;;;;8.07;100.00;97227.40;1761137;78;22134;-69
2021/04/02 10:39:12;;;;;;;;;;;;;;;8.04;100.00;97246.22;1760844;78;20547;-70
2021/04/02 10:41:40;;;;;;;;;;;;;;;7.98;100.00;97237.23;1765448;79;20548;-69
2021/04/02 10:44:08;;;;;;;;;;;;;;;7.89;100.00;97239.45;1747941;79;20658;-68
2021/04/02 10:46:37;;;;;;;;;;;;;;;7.76;100.00;97237.97;1752036;79;20837;-67
2021/04/02 10:49:05;;;;;;;;;;;;;;;7.68;100.00;97244.90;1748036;79;21855;-68
2021/04/02 10:51:33;;;;;;;;;;;;;;;7.59;100.00;97257.30;1742918;80;20632;-69
2021/04/02 10:54:01;;;;;;;;;;;;;;;7.50;100.00;97259.50;1735515;79;20551;-70
2021/04/02 10:56:32;;;;;;;;;;;;;;;7.47;100.00;97256.06;1762852;78;20604;-67
2021/04/02 10:59:01;;;;;;;;;;;;;;;7.44;100.00;97265.16;1761068;78;20502;-66
2021/04/02 11:01:29;;;;;;;;;;;;;;;7.41;100.00;97268.78;1765391;78;20856;-68
2021/04/02 11:03:57;;;;;;;;;;;;;;;7.34;100.00;97269.45;1754072;79;20396;-70
2021/04/02 11:06:25;;;;;;;;;;;;;;;7.26;100.00;97271.92;1750601;78;20672;-69
2021/04/02 11:08:53;;;;;;;;;;;;;;;7.18;100.00;97278.04;1744740;78;20515;-66
2021/04/02 11:11:21;;;;;;;;;;;;;;;7.04;100.00;97277.02;1740031;79;20558;-70
2021/04/02 11:13:49;;;;;;;;;;;;;;;6.96;100.00;97278.70;1760682;78;22059;-66
2021/04/02 11:16:18;;;;;;;;;;;;;;;6.89;100.00;97281.95;1736192;79;20308;-66
2021/04/02 11:18:46;;;;;;;;;;;;;;;6.87;100.00;97298.88;1774588;78;20484;-64
2021/04/02 11:21:15;;;;;;;;;;;;;;;6.81;100.00;97301.11;1759511;78;20504;-68
2021/04/02 11:23:42;;;;;;;;;;;;;;;6.72;100.00;97308.50;1753620;80;20491;-64
2021/04/02 11:26:13;;;;;;;;;;;;;;;6.65;100.00;97306.53;1762123;79;20823;-68
2021/04/02 11:28:46;;;;;;;;;;;;;;;6.60;100.00;97305.14;1775178;78;20530;-67
2021/04/02 11:31:15;;;;;;;;;;;;;;;6.53;100.00;97306.56;1718301;80;21004;-67
2021/04/02 11:33:42;;;;;;;;;;;;;;;6.44;100.00;97323.59;1737531;79;20599;-65
2021/04/02 11:36:14;;;;;;;;;;;;;;;6.38;100.00;97315.38;1749834;78;20534;-64
2021/04/02 11:38:44;;;;;;;;;;;;;;;6.34;100.00;97308.23;1697129;81;22052;-69
2021/04/02 11:41:12;;;;;;;;;;;;;;;6.38;100.00;97315.88;1751442;79;20572;-65
2021/04/02 11:43:39;;;;;;;;;;;;;;;6.37;100.00;97320.81;1744243;79;20225;-69
2021/04/02 11:46:07;;;;;;;;;;;;;;;6.35;100.00;97323.65;1721245;79;20502;-65
2021/04/02 11:48:36;;;;;;;;;;;;;;;6.32;100.00;97328.03;1744792;79;20667;-66
2021/04/02 11:51:04;;;;;;;;;;;;;;;6.26;100.00;97329.75;1725362;80;21854;-67
2021/04/02 11:53:33;;;;;;;;;;;;;;;6.22;100.00;97335.63;1694147;82;20153;-65
2021/04/02 11:56:05;;;;;;;;;;;;;;;6.20;100.00;97333.23;1736696;79;20523;-65
2021/04/02 11:58:36;;;;;;;;;;;;;;;6.16;100.00;97336.53;1755444;79;20948;-67
2021/04/02 12:01:03;;;;;;;;;;;;;;;6.12;100.00;97349.77;1730334;81;20737;-65
2021/04/02 12:03:31;;;;;;;;;;;;;;;6.08;100.00;97357.73;1755766;79;22461;-67
2021/04/02 12:06:00;;;;;;;;;;;;;;;6.07;100.00;97351.72;1745873;79;20642;-69
2021/04/02 12:08:29;;;;;;;;;;;;;;;6.08;100.00;97342.09;1748114;81;20575;-64
2021/04/02 12:10:57;;;;;;;;;;;;;;;6.11;100.00;97348.17;1733595;79;20889;-67
2021/04/02 12:13:25;;;;;;;;;;;;;;;6.12;100.00;97355.75;1741419;80;21549;-67
2021/04/02 12:15:54;;;;;;;;;;;;;;;6.13;100.00;97354.73;1749991;79;21889;-68
2021/04/02 12:18:24;;;;;;;;;;;;;;;6.14;100.00;97354.22;1727966;80;20607;-66
2021/04/02 12:20:55;;;;;;;;;;;;;;;6.12;100.00;97355.75;1704730;79;20614;-65
2021/04/02 12:23:24;;;;;;;;;;;;;;;6.10;100.00;97376.58;1718896;81;20722;-64
2021/04/02 12:25:54;;;;;;;;;;;;;;;6.03;100.00;97373.28;1703952;81;20659;-69
2021/04/02 12:28:22;;;;;;;;;;;;;;;5.96;100.00;97377.80;1730375;80;21895;-70
2021/04/02 12:30:50;;;;;;;;;;;;;;;5.89;100.00;97375.30;1717445;81;20567;-67
2021/04/02 12:33:18;;;;;;;;;;;;;;;5.87;100.00;97373.38;1738570;80;20380;-68
2021/04/02 12:35:45;;;;;;;;;;;;;;;5.88;100.00;97381.53;1753156;79;20591;-67
2021/04/02 12:38:13;;;;;;;;;;;;;;;5.90;100.00;97382.11;1758766;79;20642;-67
2021/04/02 12:40:41;;;;;;;;;;;;;;;5.91;100.00;97378.99;1749850;79;22042;-64
2021/04/02 12:43:09;;;;;;;;;;;;;;;5.87;100.00;97380.73;1758918;80;20574;-65
2021/04/02 12:45:37;;;;;;;;;;;;;;;5.82;100.00;97384.49;1764056;80;20408;-66
2021/04/02 12:48:06;;;;;;;;;;;;;;;5.78;100.00;97382.53;1759662;80;20506;-68
2021/04/02 12:50:34;;;;;;;;;;;;;;;5.75;100.00;97385.09;1721776;81;20570;-63
